Time;durP1;ratioP1;P1;durP2;ratioP2;P2;SDS_P1;SDS_P2;PMS_P1;PMS_P2;Temp;Humidity;BMP_temperature;BMP_pressure;BME280_temperature;BME280_humidity;BME280_pressure;Samples;Min_cycle;Max_cycle;Signal;HPM_P1;HPM_P2
2023/03/07 00:00:19;;;;;;;13.02;7.93;;;;;;;3.86;58.64;95500.94;5065468;28;20511;-86
2023/03/07 00:02:50;;;;;;;11.88;7.80;;;;;;;3.87;58.25;95497.38;5064868;28;20049;-89
2023/03/07 00:05:18;;;;;;;11.50;7.60;;;;;;;3.87;58.88;95497.38;5064871;28;20075;-87
2023/03/07 00:07:46;;;;;;;11.90;7.82;;;;;;;3.88;58.34;95492.03;5064551;28;20057;-85
2023/03/07 00:10:14;;;;;;;10.35;7.20;;;;;;;3.90;58.56;95497.03;5065048;28;20064;-90
2023/03/07 00:12:41;;;;;;;11.93;7.75;;;;;;;3.88;58.37;95486.09;5064056;28;20415;-90
2023/03/07 00:15:11;;;;;;;12.93;8.30;;;;;;;3.86;58.10;95490.59;5062904;28;20128;-89
2023/03/07 00:17:39;;;;;;;10.88;7.20;;;;;;;3.85;58.37;95484.66;5063456;28;20045;-90
2023/03/07 00:20:09;;;;;;;11.73;7.75;;;;;;;3.85;58.38;95497.56;5062693;28;20045;-88
2023/03/07 00:22:37;;;;;;;11.63;7.80;;;;;;;3.84;58.59;95492.56;5062449;28;20067;-84
2023/03/07 00:25:05;;;;;;;11.57;7.32;;;;;;;3.83;58.80;95490.94;5062336;28;20076;-86
2023/03/07 00:27:33;;;;;;;12.55;8.07;;;;;;;3.83;58.67;95490.94;5061927;28;20056;-90
2023/03/07 00:30:01;;;;;;;12.50;7.82;;;;;;;3.83;58.38;95493.53;5061252;28;20053;-89
2023/03/07 00:32:31;;;;;;;12.98;8.18;;;;;;;3.83;58.41;95493.53;5061901;28;20084;-89
2023/03/07 00:35:00;;;;;;;11.10;7.30;;;;;;;3.82;58.24;95494.50;5061895;28;20116;-89
2023/03/07 00:37:29;;;;;;;11.23;7.00;;;;;;;3.83;58.27;95501.28;5061667;28;20044;-89
2023/03/07 00:39:57;;;;;;;11.57;7.30;;;;;;;3.84;58.42;95502.88;5061487;28;20056;-85
2023/03/07 00:42:24;;;;;;;12.00;7.70;;;;;;;3.83;57.90;95485.78;5061648;28;20044;-88
2023/03/07 00:44:52;;;;;;;11.35;7.78;;;;;;;3.80;58.05;95483.53;5061923;28;20048;-88
2023/03/07 00:47:20;;;;;;;12.43;8.18;;;;;;;3.79;57.87;95474.19;5061546;28;20053;-85
2023/03/07 00:49:49;;;;;;;10.85;7.45;;;;;;;3.77;57.76;95471.78;5062168;28;20053;-88
2023/03/07 00:52:17;;;;;;;12.82;7.88;;;;;;;3.77;57.81;95476.94;5062800;28;20059;-91
2023/03/07 00:54:44;;;;;;;11.98;8.30;;;;;;;3.78;57.75;95473.38;5062363;28;20059;-86
2023/03/07 00:57:12;;;;;;;9.25;6.72;;;;;;;3.77;57.67;95466.63;5063730;28;20491;-85
2023/03/07 00:59:39;;;;;;;11.73;7.88;;;;;;;3.77;57.92;95468.41;5063825;28;20136;-90
2023/03/07 01:02:07;;;;;;;13.25;8.40;;;;;;;3.76;57.54;95465.03;5063041;28;20052;-90
2023/03/07 01:04:35;;;;;;;13.65;8.23;;;;;;;3.74;58.05;95456.66;5063381;28;20061;-90
2023/03/07 01:07:04;;;;;;;10.68;7.28;;;;;;;3.74;57.99;95458.41;5063314;28;20045;-85
2023/03/07 01:09:31;;;;;;;10.75;7.18;;;;;;;3.74;58.01;95456.66;5061501;28;20045;-86
2023/03/07 01:11:59;;;;;;;11.60;7.47;;;;;;;3.76;58.04;95451.31;5062127;28;20458;-88
2023/03/07 01:14:26;;;;;;;11.50;7.55;;;;;;;3.75;58.27;95455.66;5062151;28;20056;-84
2023/03/07 01:16:54;;;;;;;10.50;7.07;;;;;;;3.76;58.38;95449.53;5087283;22;20057;-80
2023/03/07 01:19:23;;;;;;;11.85;7.75;;;;;;;3.74;58.51;95448.91;5073967;28;20170;-81
2023/03/07 01:21:50;;;;;;;11.05;7.45;;;;;;;3.74;57.98;95445.50;5073912;28;20102;-80
2023/03/07 01:24:19;;;;;;;13.13;8.13;;;;;;;3.75;58.34;95441.97;5073859;28;20048;-81
2023/03/07 01:26:47;;;;;;;12.32;8.23;;;;;;;3.75;58.28;95431.66;5073929;28;20063;-82
2023/03/07 01:29:15;;;;;;;13.93;7.78;;;;;;;3.72;57.95;95430.22;5073265;28;20049;-81
2023/03/07 01:31:43;;;;;;;13.52;8.07;;;;;;;3.70;57.75;95427.78;5075683;28;20048;-81
2023/03/07 01:34:10;;;;;;;10.77;7.30;;;;;;;3.70;57.80;95425.22;5073513;28;20053;-81
2023/03/07 01:36:38;;;;;;;12.43;7.97;;;;;;;3.70;57.86;95435.53;5074141;28;20268;-80
2023/03/07 01:39:09;;;;;;;10.75;6.97;;;;;;;3.69;58.04;95425.38;5073204;28;20053;-81
2023/03/07 01:41:38;;;;;;;12.10;7.88;;;;;;;3.71;57.71;95421.66;5074473;28;20074;-79
2023/03/07 01:44:14;;;;;;;11.10;7.82;;;;;;;3.70;57.77;95417.47;5074797;28;20491;-81
2023/03/07 01:46:46;;;;;;;12.65;7.47;;;;;;;3.67;57.84;95422.16;5074154;28;20040;-80
2023/03/07 01:49:24;;;;;;;10.57;7.50;;;;;;;3.67;58.39;95414.41;5073118;28;20044;-82
2023/03/07 01:51:57;;;;;;;12.43;7.28;;;;;;;3.65;57.93;95413.78;5074008;28;20410;-81
2023/03/07 01:54:26;;;;;;;11.95;7.65;;;;;;;3.63;58.01;95408.00;5073582;28;20048;-81
2023/03/07 01:56:55;;;;;;;13.18;8.15;;;;;;;3.62;57.92;95411.56;5073444;28;20048;-80
2023/03/07 01:59:28;;;;;;;12.63;8.07;;;;;;;3.61;58.15;95410.75;5073293;28;20041;-80
2023/03/07 02:01:59;;;;;;;11.60;7.28;;;;;;;3.62;58.18;95417.50;5073410;28;20048;-80
2023/03/07 02:04:34;;;;;;;10.50;6.70;;;;;;;3.62;57.84;95407.19;5072871;28;20102;-81
2023/03/07 02:07:03;;;;;;;10.68;7.00;;;;;;;3.63;57.37;95408.00;5073457;28;20056;-80
2023/03/07 02:09:32;;;;;;;10.93;7.30;;;;;;;3.64;57.64;95405.25;5072841;28;20460;-80
2023/03/07 02:12:01;;;;;;;13.48;7.95;;;;;;;3.65;57.93;95406.06;5074190;28;20052;-81
2023/03/07 02:14:29;;;;;;;11.35;7.28;;;;;;;3.64;57.27;95400.09;5073968;28;20048;-82
2023/03/07 02:16:57;;;;;;;9.40;6.72;;;;;;;3.62;57.76;95396.88;5072817;28;20051;-80
2023/03/07 02:19:48;;;;;;;13.57;7.60;;;;;;;3.63;57.27;95398.50;5073126;28;20131;-81
2023/03/07 02:22:18;;;;;;;11.55;7.55;;;;;;;3.63;57.11;95403.66;5073811;28;20102;-82
2023/03/07 02:24:51;;;;;;;11.10;7.20;;;;;;;3.62;57.16;95394.28;5075329;28;20045;-80
2023/03/07 02:27:20;;;;;;;13.48;7.53;;;;;;;3.65;56.88;95385.41;5076916;28;20053;-81
2023/03/07 02:29:48;;;;;;;10.57;7.07;;;;;;;3.61;57.23;95387.53;5077027;28;20055;-81
2023/03/07 02:32:16;;;;;;;10.98;7.20;;;;;;;3.58;57.14;95385.28;5097427;28;20112;-82
2023/03/07 02:34:43;;;;;;;9.48;6.75;;;;;;;3.56;57.13;95382.06;5098736;28;20036;-80
2023/03/07 02:37:13;;;;;;;13.52;8.57;;;;;;;3.53;57.34;95385.00;5088943;28;20048;-81
2023/03/07 02:39:43;;;;;;;12.23;7.40;;;;;;;3.52;57.41;95385.97;5076942;28;20045;-81
2023/03/07 02:42:14;;;;;;;11.85;7.63;;;;;;;3.52;57.07;95385.97;5077286;28;20135;-81
2023/03/07 02:44:45;;;;;;;11.45;7.47;;;;;;;3.52;57.21;95380.81;5079411;28;20040;-81
2023/03/07 02:47:13;;;;;;;12.07;7.78;;;;;;;3.51;57.37;95384.34;5084865;28;20114;-81
2023/03/07 02:49:41;;;;;;;13.30;7.88;;;;;;;3.50;57.36;95380.97;5100339;28;20028;-80
2023/03/07 02:52:09;;;;;;;11.90;8.07;;;;;;;3.49;57.68;95376.00;5100422;28;20032;-80
2023/03/07 02:54:37;;;;;;;11.68;7.68;;;;;;;3.48;57.54;95379.56;5085517;28;20056;-80
2023/03/07 02:57:05;;;;;;;14.52;8.70;;;;;;;3.46;57.65;95384.88;5079721;28;20044;-81
2023/03/07 02:59:32;;;;;;;13.52;8.23;;;;;;;3.45;57.39;95385.81;5078175;28;20059;-81
2023/03/07 03:02:01;;;;;;;11.13;7.72;;;;;;;3.46;57.64;95391.81;5076723;28;20055;-82
2023/03/07 03:04:29;;;;;;;13.18;8.85;;;;;;;3.45;57.39;95379.88;5076051;28;20048;-81
2023/03/07 03:06:57;;;;;;;12.35;7.35;;;;;;;3.43;57.62;95381.81;5076104;28;20469;-80
2023/03/07 03:09:24;;;;;;;11.45;7.60;;;;;;;3.41;57.76;95379.41;5075240;28;20052;-80
2023/03/07 03:11:52;;;;;;;13.45;8.52;;;;;;;3.40;57.68;95377.78;5075886;28;20143;-81
2023/03/07 03:14:20;;;;;;;11.77;8.43;;;;;;;3.41;58.34;95388.91;5077295;28;20498;-81
2023/03/07 03:16:48;;;;;;;16.35;8.27;;;;;;;3.40;57.74;95392.47;5075560;28;20098;-80
2023/03/07 03:19:17;;;;;;;10.63;7.65;;;;;;;3.37;58.03;95391.03;5074867;28;20052;-81
2023/03/07 03:21:44;;;;;;;11.48;7.80;;;;;;;3.35;58.18;95385.22;5075787;28;20044;-81
2023/03/07 03:24:12;;;;;;;13.13;8.30;;;;;;;3.34;58.38;95381.03;5075530;28;20050;-82
2023/03/07 03:26:40;;;;;;;11.98;7.30;;;;;;;3.34;58.40;95385.38;5076351;28;20048;-83
2023/03/07 03:29:08;;;;;;;13.77;9.30;;;;;;;3.37;58.50;95391.03;5096713;28;20123;-81
2023/03/07 03:31:36;;;;;;;12.98;8.02;;;;;;;3.40;58.50;95387.31;5097289;28;20104;-80
2023/03/07 03:34:04;;;;;;;12.90;8.57;;;;;;;3.41;58.76;95394.06;5085425;28;20072;-81
2023/03/07 03:36:33;;;;;;;14.43;8.55;;;;;;;3.41;58.79;95373.44;5078939;28;20139;-81
2023/03/07 03:39:01;;;;;;;12.68;7.97;;;;;;;3.39;59.02;95371.03;5091022;28;20068;-82
2023/03/07 03:41:30;;;;;;;16.35;9.63;;;;;;;3.39;59.21;95385.69;5096825;28;20104;-81
2023/03/07 03:43:57;;;;;;;13.75;9.20;;;;;;;3.39;58.91;95372.78;5084304;28;20041;-80
2023/03/07 03:46:25;;;;;;;11.98;7.40;;;;;;;3.38;59.21;95377.16;5078190;28;20128;-81
2023/03/07 03:48:54;;;;;;;12.05;8.70;;;;;;;3.37;59.58;95364.41;5075236;28;20079;-80
2023/03/07 03:51:23;;;;;;;13.13;8.23;;;;;;;3.37;59.15;95361.84;5075212;28;20051;-80
2023/03/07 03:53:52;;;;;;;12.43;8.57;;;;;;;3.38;59.57;95368.63;5075452;28;20068;-81
2023/03/07 03:56:22;;;;;;;13.32;8.45;;;;;;;3.40;59.67;95358.94;5075187;28;20529;-81
2023/03/07 03:58:51;;;;;;;14.02;8.68;;;;;;;3.41;59.86;95363.13;5074896;28;20062;-81
2023/03/07 04:01:20;;;;;;;13.73;8.23;;;;;;;3.40;59.77;95349.44;5075038;28;20486;-82
2023/03/07 04:03:51;;;;;;;14.55;8.30;;;;;;;3.40;59.62;95359.75;5075001;28;20045;-81
2023/03/07 04:06:20;;;;;;;15.23;8.88;;;;;;;3.40;59.62;95356.38;5076082;28;20055;-81
2023/03/07 04:08:48;;;;;;;14.63;9.20;;;;;;;3.41;59.66;95363.94;5076064;28;20051;-81
2023/03/07 04:11:18;;;;;;;12.50;8.27;;;;;;;3.42;59.65;95362.16;5075504;28;20052;-81
2023/03/07 04:13:46;;;;;;;13.80;8.98;;;;;;;3.43;59.23;95364.59;5075096;28;20052;-80
2023/03/07 04:16:13;;;;;;;14.07;8.90;;;;;;;3.44;59.75;95365.38;5076290;28;20052;-80
2023/03/07 04:18:41;;;;;;;12.02;7.88;;;;;;;3.43;59.38;95359.44;5074286;28;20094;-80
2023/03/07 04:21:10;;;;;;;12.70;8.35;;;;;;;3.41;59.94;95353.63;5074336;28;20053;-81
2023/03/07 04:23:38;;;;;;;14.15;9.00;;;;;;;3.39;59.89;95355.56;5074525;28;20128;-81
2023/03/07 04:26:07;;;;;;;13.07;8.40;;;;;;;3.39;59.80;95354.75;5074592;28;20048;-81
2023/03/07 04:28:44;;;;;;;13.18;8.45;;;;;;;3.37;59.92;95352.38;5073985;28;20411;-81
2023/03/07 04:31:14;;;;;;;14.07;8.45;;;;;;;3.37;59.56;95352.38;5074397;28;20178;-81
2023/03/07 04:33:42;;;;;;;13.18;8.40;;;;;;;3.39;59.93;95344.44;5074957;28;20413;-80
2023/03/07 04:36:10;;;;;;;12.43;8.38;;;;;;;3.39;59.63;95345.28;5074323;28;20087;-81
2023/03/07 04:38:39;;;;;;;13.05;8.15;;;;;;;3.40;59.71;95338.31;5073818;28;20430;-81
2023/03/07 04:41:07;;;;;;;13.30;8.02;;;;;;;3.40;59.78;95341.69;5074402;28;20063;-82
2023/03/07 04:43:36;;;;;;;12.80;8.32;;;;;;;3.42;59.81;95334.59;5075697;28;20059;-82
2023/03/07 04:46:04;;;;;;;11.90;7.72;;;;;;;3.44;59.44;95342.19;5075475;28;20049;-80
2023/03/07 04:48:32;;;;;;;14.57;8.52;;;;;;;3.46;59.14;95332.50;5073238;28;20052;-80
2023/03/07 04:50:59;;;;;;;13.52;8.63;;;;;;;3.44;59.12;95332.66;5073936;28;20144;-80
2023/03/07 04:53:27;;;;;;;15.23;8.52;;;;;;;3.45;58.88;95333.47;5074176;28;20045;-80
2023/03/07 04:55:57;;;;;;;11.90;7.85;;;;;;;3.46;58.57;95335.09;5073847;28;20109;-80
2023/03/07 04:58:25;;;;;;;14.20;8.30;;;;;;;3.46;58.57;95338.47;5073723;28;20055;-81
2023/03/07 05:00:55;;;;;;;13.65;7.97;;;;;;;3.46;58.60;95329.94;5074014;28;20056;-82
2023/03/07 05:03:25;;;;;;;12.00;8.10;;;;;;;3.45;58.36;95328.31;5074109;28;20044;-80
2023/03/07 05:05:53;;;;;;;14.75;8.57;;;;;;;3.45;58.44;95325.72;5073809;28;20051;-82
2023/03/07 05:08:21;;;;;;;14.27;8.68;;;;;;;3.45;58.36;95323.94;5073876;28;20471;-81
2023/03/07 05:10:49;;;;;;;12.30;8.23;;;;;;;3.45;58.21;95326.53;5074507;28;20041;-82
2023/03/07 05:13:17;;;;;;;12.45;8.05;;;;;;;3.46;58.08;95322.19;5074656;28;20044;-81
2023/03/07 05:15:50;;;;;;;12.23;8.18;;;;;;;3.47;58.26;95327.16;5075333;28;20047;-81
2023/03/07 05:18:19;;;;;;;13.18;8.18;;;;;;;3.49;58.26;95324.44;5073397;28;20081;-79
2023/03/07 05:20:48;;;;;;;12.85;8.02;;;;;;;3.49;58.20;95308.97;5074552;28;20139;-80
2023/03/07 05:23:17;;;;;;;16.55;8.75;;;;;;;3.50;58.05;95313.16;5075987;28;20076;-80
2023/03/07 05:25:45;;;;;;;13.10;8.63;;;;;;;3.51;58.11;95319.91;5074872;28;20068;-82
2023/03/07 05:28:13;;;;;;;12.70;8.80;;;;;;;3.54;58.22;95306.66;5066392;28;20132;-81
2023/03/07 05:30:41;;;;;;;10.98;7.72;;;;;;;3.55;58.11;95303.13;5075626;28;20037;-82
2023/03/07 05:33:08;;;;;;;13.00;7.80;;;;;;;3.56;58.06;95298.75;5074701;28;20136;-82
2023/03/07 05:35:40;;;;;;;12.05;7.97;;;;;;;3.57;58.12;95296.03;5068384;28;20051;-82
2023/03/07 05:38:07;;;;;;;13.90;7.88;;;;;;;3.60;57.72;95302.63;5053118;28;20053;-82
2023/03/07 05:40:35;;;;;;;13.55;8.43;;;;;;;3.61;57.95;95302.47;5054176;28;20478;-82
2023/03/07 05:43:03;;;;;;;13.82;8.20;;;;;;;3.62;57.95;95301.47;5055188;28;20053;-79
2023/03/07 05:45:31;;;;;;;13.40;8.30;;;;;;;3.63;58.11;95297.94;5071131;28;20106;-79
2023/03/07 05:47:59;;;;;;;13.55;8.80;;;;;;;3.64;57.87;95296.16;5072062;28;20482;-79
2023/03/07 05:50:26;;;;;;;12.48;8.15;;;;;;;3.63;57.77;95287.63;5073497;28;20045;-80
2023/03/07 05:53:00;;;;;;;13.45;7.95;;;;;;;3.64;57.41;95291.00;5073863;28;20041;-81
2023/03/07 05:55:27;;;;;;;14.02;8.05;;;;;;;3.63;57.71;95297.09;5074888;28;20466;-81
2023/03/07 05:57:55;;;;;;;12.05;7.80;;;;;;;3.62;57.43;95291.16;5073813;28;20072;-80
2023/03/07 06:00:23;;;;;;;13.00;8.43;;;;;;;3.61;57.44;95299.88;5077360;28;20049;-80
2023/03/07 06:02:51;;;;;;;14.00;8.30;;;;;;;3.60;57.57;95295.69;5077808;28;20529;-80
2023/03/07 06:05:18;;;;;;;34.03;18.20;;;;;;;3.58;57.64;95289.88;5077536;28;20045;-80
2023/03/07 06:07:46;;;;;;;24.33;14.80;;;;;;;3.59;57.73;95291.50;5076259;28;20128;-79
2023/03/07 06:10:15;;;;;;;15.10;9.48;;;;;;;3.58;57.80;95302.78;5087552;28;20064;-81
2023/03/07 06:12:43;;;;;;;12.73;7.65;;;;;;;3.60;57.47;95306.00;5091733;28;20108;-81
2023/03/07 06:15:11;;;;;;;11.95;7.65;;;;;;;3.62;57.62;95311.00;5086814;28;20132;-79
2023/03/07 06:17:38;;;;;;;12.80;7.80;;;;;;;3.62;57.44;95311.78;5076910;28;20080;-79
2023/03/07 06:20:08;;;;;;;13.23;8.90;;;;;;;3.61;57.04;95301.66;5074948;28;20510;-78
2023/03/07 06:22:37;;;;;;;15.90;7.90;;;;;;;3.60;57.31;95300.03;5077383;28;20040;-78
2023/03/07 06:25:05;;;;;;;12.43;7.82;;;;;;;3.60;57.18;95306.00;5077065;28;20145;-80
2023/03/07 06:27:35;;;;;;;13.43;7.97;;;;;;;3.63;56.92;95304.84;5077759;28;20072;-80
2023/03/07 06:30:05;;;;;;;14.27;7.95;;;;;;;3.64;57.07;95298.72;5092055;28;20092;-79
2023/03/07 06:32:33;;;;;;;12.23;8.60;;;;;;;3.66;56.97;95300.16;5097685;28;20060;-84
2023/03/07 06:35:00;;;;;;;12.73;8.38;;;;;;;3.67;56.88;95296.63;5096492;28;20072;-82
2023/03/07 06:37:28;;;;;;;13.95;8.63;;;;;;;3.70;57.26;95304.00;5087618;28;20058;-85
2023/03/07 06:39:55;;;;;;;11.50;8.02;;;;;;;3.74;57.05;95306.22;5097331;28;20040;-83
2023/03/07 06:42:23;;;;;;;14.40;8.27;;;;;;;3.75;56.84;95295.75;5090501;28;20045;-82
2023/03/07 06:44:52;;;;;;;13.98;8.20;;;;;;;3.76;56.82;95304.28;5077708;28;20057;-81
2023/03/07 06:47:20;;;;;;;17.02;9.00;;;;;;;3.78;57.33;95289.44;5077245;28;20052;-81
2023/03/07 06:49:48;;;;;;;14.13;7.88;;;;;;;3.80;57.02;95293.44;5079504;28;20055;-81
2023/03/07 06:52:16;;;;;;;13.82;9.48;;;;;;;3.85;57.15;95288.59;5084160;28;20502;-82
2023/03/07 06:54:43;;;;;;;13.45;8.25;;;;;;;3.88;57.05;95283.09;5077973;28;20044;-81
2023/03/07 06:57:11;;;;;;;11.85;7.85;;;;;;;3.92;56.69;95291.28;5077114;28;20056;-81
2023/03/07 06:59:38;;;;;;;10.15;7.38;;;;;;;3.92;56.72;95283.56;5077513;28;20052;-81
2023/03/07 07:02:13;;;;;;;12.55;7.90;;;;;;;3.93;56.12;95277.41;5078142;28;20063;-81
2023/03/07 07:04:40;;;;;;;11.55;7.40;;;;;;;3.96;56.39;95284.00;5077816;28;20051;-81
2023/03/07 07:07:08;;;;;;;11.38;7.65;;;;;;;3.96;56.52;95279.66;5077094;28;20055;-82
2023/03/07 07:09:35;;;;;;;13.48;8.27;;;;;;;3.96;55.96;95284.00;5076493;28;20475;-82
2023/03/07 07:12:04;;;;;;;12.77;8.18;;;;;;;3.95;56.47;95283.19;5078738;28;20049;-81
2023/03/07 07:14:33;;;;;;;10.90;7.57;;;;;;;3.95;56.28;95283.19;5078221;28;20068;-82
2023/03/07 07:17:01;;;;;;;12.10;8.18;;;;;;;3.97;56.52;95278.66;5095662;22;20118;-80
2023/03/07 07:19:30;;;;;;;14.00;8.00;;;;;;;3.99;56.15;95284.47;5070314;28;20063;-79
2023/03/07 07:21:58;;;;;;;11.38;7.47;;;;;;;4.01;55.79;95279.94;5069863;28;20112;-80
2023/03/07 07:24:26;;;;;;;12.10;7.45;;;;;;;4.02;55.90;95281.53;5058497;28;20057;-80
2023/03/07 07:26:54;;;;;;;13.05;7.97;;;;;;;4.04;55.90;95278.78;5055619;28;20051;-80
2023/03/07 07:29:22;;;;;;;12.30;7.50;;;;;;;4.07;56.14;95291.34;5055164;28;20107;-80
2023/03/07 07:31:49;;;;;;;12.55;7.88;;;;;;;4.07;55.90;95286.19;5055354;28;20056;-80
2023/03/07 07:34:17;;;;;;;11.43;7.80;;;;;;;4.07;55.89;95284.41;5056192;28;20130;-79
2023/03/07 07:36:46;;;;;;;11.57;7.95;;;;;;;4.09;55.80;95290.19;5055216;28;20049;-79
2023/03/07 07:39:16;;;;;;;14.10;8.25;;;;;;;4.11;55.91;95280.50;5054577;28;20048;-80
2023/03/07 07:41:44;;;;;;;12.63;7.53;;;;;;;4.15;56.24;95287.88;5055319;28;20423;-80
2023/03/07 07:44:12;;;;;;;11.65;7.28;;;;;;;4.18;56.19;95282.41;5055115;28;20055;-80
2023/03/07 07:46:39;;;;;;;11.10;7.55;;;;;;;4.20;56.28;95283.81;5054617;28;20045;-79
2023/03/07 07:49:07;;;;;;;14.30;7.97;;;;;;;4.24;55.91;95281.66;5054703;28;20068;-79
2023/03/07 07:51:35;;;;;;;11.07;7.03;;;;;;;4.25;55.75;95278.94;5055494;28;20136;-80
2023/03/07 07:54:03;;;;;;;11.10;7.50;;;;;;;4.25;55.80;95281.50;5055449;28;20055;-79
2023/03/07 07:56:31;;;;;;;11.32;6.80;;;;;;;4.29;56.10;95282.75;5055320;28;20048;-79
2023/03/07 07:58:58;;;;;;;8.38;6.50;;;;;;;4.32;56.08;95286.78;5055273;28;20053;-80
2023/03/07 08:01:26;;;;;;;11.98;7.78;;;;;;;4.33;55.82;95283.22;5055205;28;20049;-80
2023/03/07 08:03:54;;;;;;;14.57;8.10;;;;;;;4.34;55.77;95283.03;5057761;28;20136;-79
2023/03/07 08:06:24;;;;;;;11.13;7.60;;;;;;;4.36;55.34;95290.63;5069709;28;20076;-80
2023/03/07 08:08:52;;;;;;;10.00;7.22;;;;;;;4.38;55.51;95288.66;5065114;28;20055;-80
2023/03/07 08:11:22;;;;;;;10.82;7.55;;;;;;;4.41;55.33;95277.97;5055073;28;20053;-80
2023/03/07 08:13:50;;;;;;;10.18;7.18;;;;;;;4.44;55.90;95271.66;5054635;28;20060;-80
2023/03/07 08:16:21;;;;;;;11.38;7.28;;;;;;;4.48;55.43;95281.47;5054497;28;20521;-80
2023/03/07 08:18:51;;;;;;;11.48;7.43;;;;;;;4.52;55.62;95279.31;5053917;28;20421;-80
2023/03/07 08:21:20;;;;;;;13.80;7.55;;;;;;;4.56;55.71;95272.84;5054264;28;20102;-80
2023/03/07 08:23:47;;;;;;;11.45;7.13;;;;;;;4.58;55.34;95268.28;5053452;28;20056;-80
2023/03/07 08:26:16;;;;;;;12.10;8.25;;;;;;;4.63;55.39;95272.91;5054914;28;20045;-80
2023/03/07 08:28:45;;;;;;;11.45;7.32;;;;;;;4.66;55.32;95273.38;5053505;28;20102;-80
2023/03/07 08:31:15;;;;;;;16.38;8.52;;;;;;;4.68;54.95;95278.34;5054267;28;20498;-80
2023/03/07 08:33:43;;;;;;;12.50;7.20;;;;;;;4.69;54.85;95275.59;5053889;28;20048;-80
2023/03/07 08:36:11;;;;;;;9.30;6.35;;;;;;;4.70;54.85;95269.47;5053999;28;20509;-80
2023/03/07 08:38:38;;;;;;;10.55;6.88;;;;;;;4.72;54.78;95264.09;5053703;28;20049;-80
2023/03/07 08:41:08;;;;;;;10.65;7.45;;;;;;;4.74;54.75;95269.91;5054063;28;20051;-79
2023/03/07 08:43:38;;;;;;;11.70;6.93;;;;;;;4.76;54.56;95275.69;5053916;28;20418;-79
2023/03/07 08:46:07;;;;;;;11.23;7.00;;;;;;;4.78;54.31;95273.72;5053989;28;20106;-80
2023/03/07 08:48:34;;;;;;;12.15;8.30;;;;;;;4.80;54.43;95276.16;5052711;28;20053;-80
2023/03/07 08:51:07;;;;;;;9.57;6.38;;;;;;;4.82;54.24;95263.84;5053568;28;20044;-79
2023/03/07 08:53:35;;;;;;;11.25;7.57;;;;;;;4.84;54.16;95262.69;5054141;28;20140;-80
2023/03/07 08:56:06;;;;;;;13.88;6.63;;;;;;;4.85;53.83;95258.31;5053769;28;20570;-79
2023/03/07 08:58:33;;;;;;;10.02;6.25;;;;;;;4.86;53.97;95250.41;5052603;28;20131;-80
2023/03/07 09:01:02;;;;;;;10.27;6.75;;;;;;;4.88;54.38;95258.78;5053918;28;20052;-80
2023/03/07 09:03:31;;;;;;;12.90;7.35;;;;;;;4.90;53.92;95256.03;5053649;28;20048;-80
2023/03/07 09:05:59;;;;;;;10.15;6.70;;;;;;;4.93;54.09;95255.66;5053588;28;20057;-80
2023/03/07 09:08:26;;;;;;;10.85;6.82;;;;;;;4.97;53.88;95258.69;5052440;28;20049;-79
2023/03/07 09:10:54;;;;;;;11.85;6.78;;;;;;;4.99;53.62;95254.13;5053403;28;20238;-80
2023/03/07 09:13:22;;;;;;;13.55;6.93;;;;;;;5.02;53.85;95257.16;5052994;28;20063;-80
2023/03/07 09:15:49;;;;;;;9.82;5.97;;;;;;;5.05;53.88;95261.16;5053257;28;20059;-80
2023/03/07 09:18:17;;;;;;;9.38;6.43;;;;;;;5.05;53.22;95253.41;5052084;28;20049;-80
2023/03/07 09:20:46;;;;;;;10.60;6.78;;;;;;;5.06;52.78;95257.59;5053234;28;20053;-80
2023/03/07 09:23:13;;;;;;;9.02;5.97;;;;;;;5.06;53.01;95245.47;5053407;28;20503;-80
2023/03/07 09:25:41;;;;;;;8.23;5.85;;;;;;;5.06;52.80;95242.09;5052718;28;20049;-80
2023/03/07 09:28:08;;;;;;;11.98;6.25;;;;;;;5.10;52.65;95236.38;5052061;28;20449;-80
2023/03/07 09:30:37;;;;;;;10.25;6.10;;;;;;;5.16;52.33;95233.06;5053385;28;20052;-80
2023/03/07 09:33:04;;;;;;;9.30;6.10;;;;;;;5.27;52.33;95226.63;5054179;28;20098;-80
2023/03/07 09:35:32;;;;;;;11.15;6.85;;;;;;;5.43;52.17;95224.81;5057118;28;20503;-80
2023/03/07 09:38:01;;;;;;;13.85;6.68;;;;;;;5.55;51.99;95221.56;5056537;28;20458;-80
2023/03/07 09:40:29;;;;;;;10.98;7.22;;;;;;;5.62;52.18;95221.63;5056708;28;20056;-79
2023/03/07 09:43:08;;;;;;;11.63;6.85;;;;;;;5.67;51.57;95221.84;5056650;28;20070;-78
2023/03/07 09:45:46;;;;;;;10.65;6.35;;;;;;;5.71;51.47;95214.53;5056633;28;20053;-80
2023/03/07 09:48:55;;;;;;;12.00;6.78;;;;;;;5.75;51.56;95220.91;5056159;28;20514;-80
2023/03/07 09:51:26;;;;;;;11.90;6.72;;;;;;;5.77;51.55;95221.53;5056486;28;20064;-80
2023/03/07 09:53:58;;;;;;;9.88;6.25;;;;;;;5.77;51.40;95209.41;5056827;28;20136;-80
2023/03/07 09:56:32;;;;;;;9.90;6.50;;;;;;;5.79;50.74;95201.44;5056453;28;20460;-80
2023/03/07 09:59:05;;;;;;;10.75;7.55;;;;;;;5.80;51.15;95195.31;5055772;28;20049;-80
2023/03/07 10:01:52;;;;;;;10.48;7.85;;;;;;;5.86;51.42;95189.41;5056944;28;20078;-80
2023/03/07 10:04:25;;;;;;;11.55;6.88;;;;;;;5.95;51.33;95192.69;5056798;28;20049;-80
2023/03/07 10:06:55;;;;;;;9.90;7.00;;;;;;;6.02;50.62;95190.94;5056087;28;20064;-81
2023/03/07 10:09:27;;;;;;;9.43;6.90;;;;;;;6.08;51.17;95197.94;5055633;28;20053;-81
2023/03/07 10:12:17;;;;;;;8.30;6.15;;;;;;;6.15;50.54;95188.44;5056050;28;20663;-80
2023/03/07 10:15:04;;;;;;;10.38;6.45;;;;;;;6.23;50.01;95189.28;5056026;28;20080;-80
2023/03/07 10:17:50;;;;;;;8.20;6.00;;;;;;;6.25;49.24;95193.28;5055872;28;20140;-80
2023/03/07 10:20:24;;;;;;;7.78;5.70;;;;;;;6.29;49.33;95193.69;5056009;28;20049;-79
2023/03/07 10:22:59;;;;;;;13.00;7.07;;;;;;;6.31;49.25;95187.34;5055989;28;20261;-80
2023/03/07 10:25:31;;;;;;;9.43;6.55;;;;;;;6.32;48.85;95183.78;5055718;28;20052;-80
2023/03/07 10:28:11;;;;;;;16.83;9.15;;;;;;;6.33;48.90;95184.56;5055079;28;20131;-80
2023/03/07 10:30:39;;;;;;;11.45;6.72;;;;;;;6.34;49.19;95171.44;5055597;28;20049;-80
2023/03/07 10:33:16;;;;;;;9.48;6.22;;;;;;;6.37;48.74;95181.41;5055297;28;20110;-79
2023/03/07 10:35:49;;;;;;;7.93;5.20;;;;;;;6.43;48.19;95182.44;5055216;28;20511;-80
2023/03/07 10:38:28;;;;;;;6.90;4.60;;;;;;;6.44;47.97;95176.25;5054597;28;20048;-80
2023/03/07 10:41:02;;;;;;;9.82;5.53;;;;;;;6.47;47.54;95181.09;5057438;28;20049;-80
2023/03/07 10:43:32;;;;;;;7.43;5.25;;;;;;;6.52;47.38;95176.13;5055819;28;20049;-80
2023/03/07 10:46:09;;;;;;;10.85;6.43;;;;;;;6.57;47.17;95186.69;5054927;28;20091;-79
2023/03/07 10:48:53;;;;;;;9.10;5.38;;;;;;;6.59;47.00;95179.53;5058554;28;20285;-79
2023/03/07 10:51:33;;;;;;;9.38;5.53;;;;;;;6.60;46.70;95170.78;5070565;28;20083;-79
2023/03/07 10:54:02;;;;;;;7.82;5.13;;;;;;;6.63;47.29;95169.59;5062175;28;20123;-80
2023/03/07 10:56:30;;;;;;;7.63;5.80;;;;;;;6.68;47.35;95166.44;5055640;28;20457;-80
2023/03/07 10:59:00;;;;;;;9.65;6.25;;;;;;;6.70;47.12;95157.47;5054543;28;20112;-79
2023/03/07 11:01:30;;;;;;;8.00;6.00;;;;;;;6.67;46.48;95154.44;5054748;28;20143;-80
2023/03/07 11:04:00;;;;;;;9.73;6.00;;;;;;;6.64;46.67;95149.66;5055377;28;20422;-80
2023/03/07 11:06:35;;;;;;;10.20;5.70;;;;;;;6.58;46.72;95153.81;5055102;28;20140;-80
2023/03/07 11:09:23;;;;;;;8.52;6.30;;;;;;;6.53;46.46;95151.78;5054000;28;20045;-80
2023/03/07 11:11:55;;;;;;;8.00;5.65;;;;;;;6.46;46.46;95161.34;5054633;28;20049;-80
2023/03/07 11:14:23;;;;;;;8.80;5.45;;;;;;;6.39;46.58;95168.28;5054928;28;20147;-79
2023/03/07 11:16:54;;;;;;;7.60;5.10;;;;;;;6.35;46.62;95148.94;5054570;28;20053;-80
2023/03/07 11:19:35;;;;;;;6.20;4.65;;;;;;;6.31;45.72;95152.88;5054096;28;20059;-80
2023/03/07 11:22:05;;;;;;;7.45;5.35;;;;;;;6.27;46.13;95149.06;5054633;28;20141;-80
2023/03/07 11:24:37;;;;;;;7.85;5.60;;;;;;;6.23;45.47;95143.50;5054310;28;20143;-80
2023/03/07 11:27:06;;;;;;;9.98;5.43;;;;;;;6.21;45.72;95139.47;5054603;28;20049;-80
2023/03/07 11:29:34;;;;;;;8.30;5.85;;;;;;;6.16;45.87;95132.28;5053819;28;20151;-80
2023/03/07 11:32:09;;;;;;;8.27;5.70;;;;;;;6.12;45.72;95131.88;5054320;28;20512;-79
2023/03/07 11:34:43;;;;;;;8.48;5.70;;;;;;;6.12;45.69;95151.75;5054088;28;20056;-80
2023/03/07 11:37:27;;;;;;;7.75;4.47;;;;;;;6.09;45.04;95142.59;5054301;28;20049;-79
2023/03/07 11:40:11;;;;;;;9.10;5.22;;;;;;;6.08;44.63;95140.19;5053929;28;20081;-79
2023/03/07 11:42:46;;;;;;;6.30;4.50;;;;;;;6.05;44.84;95141.34;5054418;28;20087;-79
2023/03/07 11:45:29;;;;;;;8.32;4.95;;;;;;;6.04;44.97;95121.66;5054376;28;20132;-80